Airfield :
LOGIN :

Register | Disclaimer

   EN    FR    IT 

 










Legend :    VFR   Marginal VFR   IFR   Intensive IFR   Very Intensive IFR
Visi :
Ceiling :
>= 8 km
>= 3000ft
5 to 8 km
1000 to 3000 ft
1500m to 5 km
500 to 1000 ft
800 to 1500m
200 to 500 ft
< 800m
< 200 ft
Symbols :   Thunderstorms  Fog  Heavy snow  Heavy precipitations  Wind > 20 kt
SIGMETs :     Misc.  Thunderstorms  Icing  Turbulence  Mountain Waves  Volcanic Ashes






- Airport Elevation : 755 ft
- IATA code : DRS


EDDC - Dresden Klotzsche

CURRENT METAR :
  • 301650Z 29006KT 250V360 CAVOK 27/11 Q1007 NOSIG

EXPIRED METARs :
  • 301620Z 28005KT 230V350 CAVOK 27/11 Q1007 NOSIG
  • 301550Z VRB05KT CAVOK 27/11 Q1007 NOSIG
  • 301520Z 27006KT 200V340 CAVOK 26/11 Q1008 NOSIG
  • 301450Z 25007KT 190V290 CAVOK 27/11 Q1008 NOSIG
  • 301420Z 26009KT 180V310 CAVOK 27/11 Q1009 NOSIG

TAF TAF EDDC
Valid from the 30 at 12:00 until the 31 at 12:00 UTC


301100Z 3012/3112 26008KT CAVOK
BECMG 3015/3018 15004KT
BECMG 3101/3104 24008KT
BECMG 3107/3110 24015G25KT



MET'MAP, your aeronautical weather chart ! - Copyright ORBIFLY December 2007 - Disclaimer

ORBIFLY MET'MAP TEAM :

Programming & Development : Alexandra Zaïnal
Concept & original design : Baudouin d'Aumeries
Assistance for programming : Marc-Olivier Méhu
Technical & hardware support : Manuel Goepfert

Contact : metmap@orbifly.com




SOURCES & CREDITS :

   NOAA